Time;durP1;ratioP1;P1;durP2;ratioP2;P2;SDS_P1;SDS_P2;PMS_P1;PMS_P2;Temp;Humidity;BMP_temperature;BMP_pressure;BME280_temperature;BME280_humidity;BME280_pressure;Samples;Min_cycle;Max_cycle;Signal;HPM_P1;HPM_P2
2021/07/12 00:01:07;;;;;;;16.40;15.20;;;16.80;99.90;;;;;;4993753;28;20567;-70
2021/07/12 00:03:34;;;;;;;17.07;15.70;;;16.70;99.90;;;;;;4993888;28;20447;-70
2021/07/12 00:06:00;;;;;;;17.67;16.00;;;16.80;99.90;;;;;;4993928;28;20831;-71
2021/07/12 00:08:27;;;;;;;17.07;15.77;;;16.70;99.90;;;;;;4993814;28;20455;-70
2021/07/12 00:10:54;;;;;;;15.90;14.60;;;16.80;99.90;;;;;;4993702;28;20451;-70
2021/07/12 00:13:20;;;;;;;15.80;14.60;;;16.80;99.90;;;;;;4993648;28;20453;-71
2021/07/12 00:15:47;;;;;;;15.80;14.53;;;16.80;99.90;;;;;;4993807;28;20677;-71
2021/07/12 00:18:15;;;;;;;15.07;13.97;;;16.80;99.90;;;;;;4993679;28;20816;-70
2021/07/12 00:20:42;;;;;;;15.53;14.37;;;16.70;99.90;;;;;;4993392;28;20478;-69
2021/07/12 00:23:09;;;;;;;15.47;14.20;;;16.80;99.90;;;;;;4993275;28;20821;-70
2021/07/12 00:25:36;;;;;;;14.80;13.63;;;16.80;99.90;;;;;;5029362;23;20484;-65
2021/07/12 00:28:03;;;;;;;13.93;12.83;;;16.70;99.90;;;;;;5034124;28;20452;-65
2021/07/12 00:30:30;;;;;;;17.27;15.67;;;16.70;99.90;;;;;;5034094;28;20437;-66
2021/07/12 00:32:57;;;;;;;15.30;14.20;;;16.70;99.90;;;;;;5033738;28;20448;-66
2021/07/12 00:35:26;;;;;;;16.90;15.40;;;16.70;99.90;;;;;;5034130;28;20469;-66
2021/07/12 00:37:53;;;;;;;14.30;13.30;;;16.70;99.90;;;;;;5034054;28;20448;-65
2021/07/12 00:40:21;;;;;;;16.10;14.47;;;16.70;99.90;;;;;;5033786;28;20576;-66
2021/07/12 00:42:49;;;;;;;15.30;14.00;;;16.70;99.90;;;;;;5033818;28;20452;-66
2021/07/12 00:45:18;;;;;;;15.67;14.33;;;16.70;99.90;;;;;;5033899;28;20473;-66
2021/07/12 00:47:45;;;;;;;14.70;13.60;;;16.60;99.90;;;;;;5034204;28;20444;-66
2021/07/12 00:50:13;;;;;;;14.80;13.67;;;16.60;99.90;;;;;;5033964;28;20452;-66
2021/07/12 00:52:42;;;;;;;14.87;13.60;;;16.60;99.90;;;;;;5033485;28;20448;-66
2021/07/12 00:55:21;;;;;;;15.40;14.20;;;16.60;99.90;;;;;;5033599;28;20461;-66
2021/07/12 00:57:49;;;;;;;14.80;13.40;;;16.60;99.90;;;;;;5033725;28;20957;-66
2021/07/12 01:00:18;;;;;;;14.57;13.47;;;16.50;99.90;;;;;;5033323;28;20486;-66
2021/07/12 01:02:44;;;;;;;15.03;13.83;;;16.50;99.90;;;;;;5032575;28;20456;-66
2021/07/12 01:05:16;;;;;;;16.73;15.03;;;16.50;99.90;;;;;;5033532;28;20465;-66
2021/07/12 01:07:46;;;;;;;15.67;14.30;;;16.40;99.90;;;;;;5033752;28;20452;-66
2021/07/12 01:10:17;;;;;;;14.83;13.50;;;16.40;99.90;;;;;;5033540;28;20445;-66
2021/07/12 01:12:49;;;;;;;16.43;14.97;;;16.40;99.90;;;;;;5033352;28;20502;-66
2021/07/12 01:15:18;;;;;;;17.77;16.07;;;16.40;99.90;;;;;;5033291;28;20472;-66
2021/07/12 01:17:54;;;;;;;19.60;17.60;;;16.40;99.90;;;;;;5033876;28;20965;-66
2021/07/12 01:20:59;;;;;;;19.93;18.23;;;16.40;99.90;;;;;;5033470;28;20513;-66
2021/07/12 01:23:48;;;;;;;20.13;16.30;;;16.40;99.90;;;;;;5033677;28;20471;-66
2021/07/12 01:26:56;;;;;;;17.90;16.30;;;16.40;99.90;;;;;;5033373;28;20473;-66
2021/07/12 01:29:41;;;;;;;19.57;17.73;;;16.30;99.90;;;;;;5033504;28;20445;-66
2021/07/12 01:32:45;;;;;;;21.27;19.33;;;16.30;99.90;;;;;;5033001;28;20452;-66
2021/07/12 01:35:23;;;;;;;21.90;19.70;;;16.30;99.90;;;;;;5033170;28;20472;-66
2021/07/12 01:38:02;;;;;;;20.10;18.03;;;16.30;99.90;;;;;;5033534;28;20449;-65
2021/07/12 01:40:36;;;;;;;28.63;19.30;;;16.30;99.90;;;;;;5033466;28;20867;-66
2021/07/12 01:43:09;;;;;;;20.90;19.00;;;16.20;99.90;;;;;;5031855;28;20460;-67
2021/07/12 01:45:46;;;;;;;24.50;21.87;;;16.20;99.90;;;;;;5032318;28;20504;-67
2021/07/12 01:48:20;;;;;;;23.43;21.23;;;16.20;99.90;;;;;;5032205;28;20452;-67
2021/07/12 01:50:52;;;;;;;22.67;20.57;;;16.20;99.90;;;;;;5032437;28;20452;-67
2021/07/12 01:53:24;;;;;;;22.80;20.60;;;16.10;99.90;;;;;;5032307;28;20449;-67
2021/07/12 01:55:58;;;;;;;21.10;19.30;;;16.10;99.90;;;;;;5032972;28;20472;-67
2021/07/12 01:58:30;;;;;;;21.90;19.70;;;16.10;99.90;;;;;;5032696;28;20445;-66
2021/07/12 02:00:58;;;;;;;21.70;19.70;;;16.10;99.90;;;;;;5031791;28;20484;-67
2021/07/12 02:03:25;;;;;;;26.40;23.83;;;16.10;99.90;;;;;;5031615;28;20807;-67
2021/07/12 02:05:57;;;;;;;22.77;20.53;;;16.10;99.90;;;;;;5031753;28;20469;-67
2021/07/12 02:08:24;;;;;;;22.83;20.87;;;16.10;99.90;;;;;;5031624;28;20452;-67
2021/07/12 02:10:53;;;;;;;22.80;20.50;;;16.20;99.90;;;;;;5031593;28;20476;-67
2021/07/12 02:13:20;;;;;;;21.57;19.53;;;16.20;99.90;;;;;;5033745;28;20456;-66
2021/07/12 02:15:51;;;;;;;21.27;19.37;;;16.20;99.90;;;;;;5036072;28;20465;-66
2021/07/12 02:18:19;;;;;;;25.17;22.70;;;16.10;99.90;;;;;;5036327;28;20453;-66
2021/07/12 02:20:47;;;;;;;20.70;18.93;;;16.20;99.90;;;;;;5037017;28;20481;-67
2021/07/12 02:23:17;;;;;;;22.00;19.97;;;16.10;99.90;;;;;;5037218;28;20457;-66
2021/07/12 02:25:46;;;;;;;22.93;20.87;;;16.10;99.90;;;;;;5036649;28;20473;-66
2021/07/12 02:28:14;;;;;;;22.20;20.20;;;16.10;99.90;;;;;;5035569;28;20445;-66
2021/07/12 02:30:44;;;;;;;22.60;20.77;;;16.00;99.90;;;;;;5035349;28;20448;-66
2021/07/12 02:33:12;;;;;;;23.57;21.50;;;16.00;99.90;;;;;;5035282;28;20441;-66
2021/07/12 02:35:40;;;;;;;28.13;22.67;;;16.00;99.90;;;;;;5035831;28;20472;-66
2021/07/12 02:38:09;;;;;;;24.60;22.20;;;15.90;99.90;;;;;;5036630;28;20817;-66
2021/07/12 02:40:38;;;;;;;25.57;22.47;;;15.90;99.90;;;;;;5036611;28;20523;-66
2021/07/12 02:43:06;;;;;;;24.70;22.30;;;15.90;99.90;;;;;;5035837;28;20440;-67
2021/07/12 02:45:35;;;;;;;27.00;24.50;;;15.90;99.90;;;;;;5035536;28;20477;-67
2021/07/12 02:48:02;;;;;;;24.40;22.17;;;15.90;99.90;;;;;;5036112;28;20449;-67
2021/07/12 02:50:29;;;;;;;25.80;23.33;;;15.90;99.90;;;;;;5036704;28;20826;-66
2021/07/12 02:53:01;;;;;;;26.33;23.23;;;15.90;99.90;;;;;;5035965;28;20445;-67
2021/07/12 02:55:28;;;;;;;24.77;22.37;;;15.80;99.90;;;;;;5036318;28;20830;-67
2021/07/12 02:57:56;;;;;;;28.37;25.73;;;15.80;99.90;;;;;;5036753;28;20463;-67
2021/07/12 03:00:23;;;;;;;28.43;25.43;;;15.80;99.90;;;;;;5036531;28;20456;-66
2021/07/12 03:02:50;;;;;;;27.87;24.97;;;15.80;99.90;;;;;;5035673;28;21002;-67
2021/07/12 03:05:16;;;;;;;28.10;25.10;;;15.80;99.90;;;;;;5035846;28;20473;-66
2021/07/12 03:07:46;;;;;;;30.03;26.30;;;15.80;99.90;;;;;;5035709;28;20452;-67
2021/07/12 03:10:20;;;;;;;27.50;24.87;;;15.80;99.90;;;;;;5036229;28;20448;-66
2021/07/12 03:12:50;;;;;;;27.47;24.77;;;15.80;99.90;;;;;;5035743;28;20448;-67
2021/07/12 03:15:21;;;;;;;29.93;27.03;;;15.80;99.90;;;;;;5036164;28;20852;-67
2021/07/12 03:17:53;;;;;;;28.43;25.50;;;15.80;99.90;;;;;;5035887;28;20441;-66
2021/07/12 03:20:21;;;;;;;30.53;27.50;;;15.80;99.90;;;;;;5035553;28;20453;-67
2021/07/12 03:22:52;;;;;;;29.20;26.20;;;15.80;99.90;;;;;;5035358;28;20480;-67
2021/07/12 03:25:23;;;;;;;28.50;25.43;;;15.80;99.90;;;;;;5034373;28;20477;-66
2021/07/12 03:27:54;;;;;;;29.80;26.73;;;15.90;99.90;;;;;;5036053;28;20457;-66
2021/07/12 03:30:23;;;;;;;30.03;26.80;;;15.90;99.90;;;;;;5035874;28;20453;-66
2021/07/12 03:32:51;;;;;;;28.90;25.80;;;15.90;99.90;;;;;;5035501;28;20442;-66
2021/07/12 03:35:19;;;;;;;30.77;25.90;;;15.90;99.90;;;;;;5035398;28;20472;-67
2021/07/12 03:37:47;;;;;;;30.60;27.80;;;16.00;99.90;;;;;;5035213;28;20445;-67
2021/07/12 03:40:15;;;;;;;28.40;25.80;;;16.00;99.90;;;;;;5034920;28;20449;-67
2021/07/12 03:42:42;;;;;;;27.40;24.83;;;16.00;99.90;;;;;;5034763;28;20477;-67
2021/07/12 03:45:10;;;;;;;27.67;25.03;;;16.00;99.90;;;;;;5035035;28;20492;-67
2021/07/12 03:47:39;;;;;;;32.00;26.60;;;16.00;99.90;;;;;;5035254;28;20445;-67
2021/07/12 03:50:10;;;;;;;28.47;25.77;;;16.00;99.90;;;;;;5035071;28;20507;-67
2021/07/12 03:52:42;;;;;;;35.90;28.10;;;16.00;99.90;;;;;;5034446;28;20445;-65
2021/07/12 03:55:11;;;;;;;29.60;26.80;;;16.00;99.90;;;;;;5034505;28;20512;-66
2021/07/12 03:57:37;;;;;;;31.23;28.13;;;16.00;99.90;;;;;;5033943;28;20488;-66
2021/07/12 04:00:06;;;;;;;30.00;26.90;;;16.00;99.90;;;;;;5034054;28;20445;-66
2021/07/12 04:02:33;;;;;;;30.37;27.30;;;16.00;99.90;;;;;;5033980;28;20477;-67
2021/07/12 04:05:01;;;;;;;30.47;27.30;;;16.10;99.90;;;;;;5034079;28;20450;-66
2021/07/12 04:07:28;;;;;;;29.63;26.63;;;16.10;99.90;;;;;;5034192;28;20456;-67
2021/07/12 04:09:54;;;;;;;28.77;23.27;;;16.20;99.90;;;;;;5033778;28;20507;-66
2021/07/12 04:12:24;;;;;;;28.17;25.27;;;16.20;99.90;;;;;;5033372;28;20444;-67
2021/07/12 04:14:51;;;;;;;27.10;24.60;;;16.30;99.90;;;;;;5033681;28;20480;-66
2021/07/12 04:17:18;;;;;;;25.87;23.43;;;16.40;99.90;;;;;;5033464;28;20824;-67
2021/07/12 04:19:45;;;;;;;26.57;24.17;;;16.40;99.90;;;;;;5033575;28;20814;-66
2021/07/12 04:22:13;;;;;;;24.80;22.47;;;16.50;99.90;;;;;;5033435;28;20488;-66
2021/07/12 04:24:40;;;;;;;24.87;22.47;;;16.60;99.90;;;;;;5033477;28;20453;-67
2021/07/12 04:27:07;;;;;;;27.60;23.20;;;16.70;99.90;;;;;;5033023;28;20476;-67
2021/07/12 04:29:33;;;;;;;26.97;23.30;;;16.70;99.90;;;;;;5033265;28;20453;-67
2021/07/12 04:32:01;;;;;;;24.20;22.10;;;16.90;99.90;;;;;;5032782;28;20448;-67
2021/07/12 04:34:28;;;;;;;28.07;25.40;;;16.90;99.90;;;;;;5033162;28;20444;-66
2021/07/12 04:36:56;;;;;;;26.43;23.93;;;17.00;99.90;;;;;;5032484;28;20997;-66
2021/07/12 04:39:24;;;;;;;30.33;23.37;;;17.00;99.90;;;;;;5033172;28;20445;-67
2021/07/12 04:41:51;;;;;;;25.73;23.03;;;17.10;99.90;;;;;;5032561;28;20812;-67
2021/07/12 04:44:17;;;;;;;25.30;23.10;;;17.20;99.90;;;;;;5032684;28;20819;-66
2021/07/12 04:46:45;;;;;;;24.67;22.67;;;17.20;99.90;;;;;;5032767;28;20552;-67
2021/07/12 04:49:12;;;;;;;24.17;22.17;;;17.30;99.90;;;;;;5032652;28;20449;-67
2021/07/12 04:51:39;;;;;;;23.40;21.50;;;17.30;99.90;;;;;;5032588;28;20433;-67
2021/07/12 04:54:06;;;;;;;23.93;21.90;;;17.40;99.90;;;;;;5032530;28;20540;-66
2021/07/12 04:56:35;;;;;;;27.57;25.17;;;17.50;99.90;;;;;;5032703;28;20461;-66
2021/07/12 04:59:04;;;;;;;25.33;23.33;;;17.60;99.90;;;;;;5032348;28;20449;-66
2021/07/12 05:01:33;;;;;;;24.03;22.03;;;17.70;99.90;;;;;;5032161;28;20483;-66
2021/07/12 05:04:00;;;;;;;25.37;23.27;;;17.70;99.90;;;;;;5032295;28;20456;-68
2021/07/12 05:06:27;;;;;;;23.57;21.47;;;17.80;99.90;;;;;;5032179;28;20465;-66
2021/07/12 05:08:54;;;;;;;22.77;20.90;;;17.80;99.90;;;;;;5032311;28;20911;-66
2021/07/12 05:11:20;;;;;;;23.37;21.47;;;17.90;99.90;;;;;;5032204;28;20450;-67
2021/07/12 05:13:49;;;;;;;24.67;22.87;;;18.00;99.90;;;;;;5032148;28;20854;-66
2021/07/12 05:16:15;;;;;;;24.67;22.47;;;18.10;99.90;;;;;;5031926;28;20465;-67
2021/07/12 05:18:42;;;;;;;25.07;23.10;;;18.20;99.90;;;;;;5032008;28;20449;-67
2021/07/12 05:21:09;;;;;;;24.70;22.80;;;18.30;99.90;;;;;;5032010;28;20759;-67
2021/07/12 05:23:37;;;;;;;23.43;21.83;;;18.40;99.90;;;;;;5032086;28;20480;-66
2021/07/12 05:26:03;;;;;;;25.03;23.17;;;18.50;99.90;;;;;;5031852;28;20492;-66
2021/07/12 05:28:31;;;;;;;24.13;22.43;;;18.60;99.90;;;;;;5032126;28;20460;-67
2021/07/12 05:30:59;;;;;;;24.17;22.40;;;18.70;99.90;;;;;;5032074;28;20981;-67
2021/07/12 05:33:25;;;;;;;24.70;22.93;;;18.80;99.90;;;;;;5031928;28;20449;-68
2021/07/12 05:35:52;;;;;;;24.10;22.50;;;18.90;99.90;;;;;;5031889;28;20463;-67
2021/07/12 05:38:19;;;;;;;26.03;23.80;;;19.00;99.90;;;;;;5031967;28;20476;-67
2021/07/12 05:40:46;;;;;;;26.50;24.60;;;19.10;99.90;;;;;;5032042;28;20476;-67
2021/07/12 05:43:12;;;;;;;26.30;23.90;;;19.20;99.90;;;;;;5031631;28;20489;-66
2021/07/12 05:45:39;;;;;;;24.57;22.80;;;19.30;99.90;;;;;;5031833;28;20872;-67
2021/07/12 05:48:08;;;;;;;24.27;22.73;;;19.40;99.90;;;;;;5031277;28;20456;-68
2021/07/12 05:50:35;;;;;;;25.27;23.57;;;19.50;99.90;;;;;;5031720;28;20445;-67
2021/07/12 05:53:02;;;;;;;23.67;22.10;;;19.70;99.90;;;;;;5031552;28;20779;-67
2021/07/12 05:55:29;;;;;;;23.90;22.30;;;19.80;99.90;;;;;;5031576;28;20469;-66
2021/07/12 05:57:56;;;;;;;24.20;22.70;;;19.80;99.90;;;;;;5031673;28;20449;-67
2021/07/12 06:00:23;;;;;;;23.53;21.97;;;19.90;99.90;;;;;;5031444;28;20476;-66
2021/07/12 06:02:50;;;;;;;23.47;22.00;;;20.00;99.90;;;;;;5031458;28;20481;-66
2021/07/12 06:05:18;;;;;;;23.57;22.03;;;20.10;99.90;;;;;;5031333;28;20480;-66
2021/07/12 06:07:45;;;;;;;24.00;22.50;;;20.20;99.90;;;;;;5031626;28;20946;-66
2021/07/12 06:10:12;;;;;;;24.90;23.40;;;20.20;99.90;;;;;;5031578;28;20884;-66
2021/07/12 06:12:40;;;;;;;26.80;25.10;;;20.20;99.90;;;;;;5031440;28;20446;-66
2021/07/12 06:15:08;;;;;;;25.07;23.37;;;20.20;99.90;;;;;;5031405;28;20445;-66
2021/07/12 06:17:36;;;;;;;23.43;22.03;;;20.30;99.90;;;;;;5031273;28;20453;-66
2021/07/12 06:20:03;;;;;;;27.37;25.27;;;20.30;99.90;;;;;;5031448;28;20946;-66
2021/07/12 06:22:31;;;;;;;24.33;22.73;;;20.30;99.90;;;;;;5031161;28;20492;-66
2021/07/12 06:24:58;;;;;;;24.83;23.33;;;20.30;99.90;;;;;;5031141;28;20457;-66
2021/07/12 06:27:25;;;;;;;25.23;23.50;;;20.40;99.90;;;;;;5032521;28;20445;-66
2021/07/12 06:29:51;;;;;;;26.40;24.10;;;20.30;99.90;;;;;;5031697;28;20441;-66
2021/07/12 06:32:18;;;;;;;24.77;23.20;;;20.20;99.90;;;;;;5031049;28;20460;-65
2021/07/12 06:34:45;;;;;;;26.23;24.53;;;20.10;99.90;;;;;;5031459;28;20468;-66
2021/07/12 06:37:12;;;;;;;26.17;24.53;;;20.10;99.90;;;;;;5031477;28;20469;-66
2021/07/12 06:39:40;;;;;;;25.23;23.63;;;20.10;99.90;;;;;;5031564;28;20451;-66
2021/07/12 06:42:07;;;;;;;25.00;23.23;;;20.10;99.90;;;;;;5031327;28;20531;-66
2021/07/12 06:44:34;;;;;;;24.77;22.87;;;20.00;99.90;;;;;;5031212;28;20444;-66
2021/07/12 06:47:00;;;;;;;24.40;22.80;;;20.00;99.90;;;;;;5031303;28;20477;-66
2021/07/12 06:49:27;;;;;;;24.93;23.23;;;20.00;99.90;;;;;;5031541;28;20452;-66
2021/07/12 06:51:54;;;;;;;25.33;23.50;;;20.00;99.90;;;;;;5031225;28;20452;-65
2021/07/12 06:54:20;;;;;;;25.47;23.87;;;20.10;99.90;;;;;;5031574;28;20451;-66
2021/07/12 06:56:48;;;;;;;25.03;23.50;;;20.10;99.90;;;;;;5031164;28;20974;-66
2021/07/12 06:59:15;;;;;;;24.97;22.97;;;20.20;99.90;;;;;;5033230;28;20460;-66
2021/07/12 07:01:42;;;;;;;23.37;21.97;;;20.30;99.90;;;;;;5034631;28;20448;-66
2021/07/12 07:04:09;;;;;;;22.53;21.10;;;20.40;99.90;;;;;;5034992;28;20481;-66
2021/07/12 07:06:35;;;;;;;23.80;22.40;;;20.50;99.90;;;;;;5034776;28;20873;-66
2021/07/12 07:09:02;;;;;;;23.80;22.30;;;20.60;99.90;;;;;;5034759;28;20445;-67
2021/07/12 07:11:31;;;;;;;21.57;20.30;;;20.70;99.90;;;;;;5034725;28;20455;-66
2021/07/12 07:13:59;;;;;;;22.27;20.87;;;20.80;99.90;;;;;;5034830;28;20535;-66
2021/07/12 07:16:26;;;;;;;21.87;20.37;;;20.90;99.90;;;;;;5034437;28;20468;-66
2021/07/12 07:18:53;;;;;;;22.60;21.20;;;21.10;99.90;;;;;;5034397;28;20456;-65
2021/07/12 07:21:20;;;;;;;22.70;21.03;;;21.10;99.90;;;;;;5034226;28;20942;-66
2021/07/12 07:23:47;;;;;;;22.20;20.80;;;21.20;99.90;;;;;;5034317;28;20512;-66
2021/07/12 07:26:14;;;;;;;22.10;20.90;;;21.40;99.90;;;;;;5034166;28;20507;-66
2021/07/12 07:28:41;;;;;;;22.37;21.17;;;21.50;99.90;;;;;;5034277;28;20453;-67
2021/07/12 07:31:09;;;;;;;22.00;20.70;;;21.70;99.90;;;;;;5033864;28;20456;-66
2021/07/12 07:33:36;;;;;;;23.43;22.03;;;21.90;99.90;;;;;;5034062;28;20442;-66
2021/07/12 07:36:03;;;;;;;21.57;20.47;;;22.10;99.90;;;;;;5033848;28;20465;-66
2021/07/12 07:38:30;;;;;;;21.23;20.03;;;22.30;99.90;;;;;;5033932;28;20441;-66
2021/07/12 07:40:57;;;;;;;22.10;20.80;;;22.50;99.90;;;;;;5033763;28;20503;-66
2021/07/12 07:43:23;;;;;;;21.87;20.73;;;22.60;99.90;;;;;;5033473;28;20477;-66
2021/07/12 07:45:50;;;;;;;23.50;22.20;;;22.80;99.90;;;;;;5033768;28;20494;-66
2021/07/12 07:48:18;;;;;;;22.97;21.77;;;22.90;99.90;;;;;;5033647;28;20449;-66
2021/07/12 07:50:45;;;;;;;21.30;20.20;;;23.00;99.90;;;;;;5033640;28;20980;-66
2021/07/12 07:53:12;;;;;;;20.87;19.87;;;22.90;99.90;;;;;;5033401;28;20861;-66
2021/07/12 07:55:40;;;;;;;20.33;19.33;;;23.00;99.90;;;;;;5033457;28;20469;-67
2021/07/12 07:58:06;;;;;;;21.27;20.17;;;22.90;99.90;;;;;;5033679;28;20448;-66
2021/07/12 08:00:33;;;;;;;19.83;18.93;;;23.00;99.90;;;;;;5033409;28;20453;-66
2021/07/12 08:03:00;;;;;;;22.73;21.40;;;23.00;99.90;;;;;;5033209;28;20492;-66
2021/07/12 08:05:28;;;;;;;20.37;19.37;;;23.10;99.90;;;;;;5033402;28;20468;-66
2021/07/12 08:07:55;;;;;;;21.60;20.60;;;23.10;99.90;;;;;;5033368;28;20445;-65
2021/07/12 08:10:21;;;;;;;20.13;19.13;;;23.20;99.90;;;;;;5032734;28;20445;-66
2021/07/12 08:12:49;;;;;;;22.03;21.00;;;23.30;99.90;;;;;;5032977;28;20953;-66
2021/07/12 08:15:17;;;;;;;21.30;20.20;;;23.20;99.90;;;;;;5033187;28;20475;-66
2021/07/12 08:17:44;;;;;;;20.67;19.77;;;23.30;99.90;;;;;;5033148;28;20444;-66
2021/07/12 08:20:13;;;;;;;20.43;19.43;;;23.30;99.90;;;;;;5033074;28;20449;-67
2021/07/12 08:22:42;;;;;;;19.70;18.60;;;23.40;99.90;;;;;;5032616;28;20818;-66
2021/07/12 08:25:10;;;;;;;20.17;19.27;;;23.50;99.90;;;;;;5032623;28;21001;-66
2021/07/12 08:27:39;;;;;;;19.23;18.23;;;23.40;99.90;;;;;;5032927;28;20449;-66
2021/07/12 08:30:07;;;;;;;18.07;17.37;;;23.50;99.90;;;;;;5032748;28;20552;-65
2021/07/12 08:32:33;;;;;;;18.90;18.00;;;23.60;99.90;;;;;;5032675;28;20527;-67
2021/07/12 08:35:00;;;;;;;19.27;18.47;;;23.70;99.90;;;;;;5032743;28;20445;-66
2021/07/12 08:37:27;;;;;;;18.47;17.67;;;23.80;99.90;;;;;;5032655;28;20449;-66
2021/07/12 08:39:55;;;;;;;19.47;18.50;;;23.90;99.90;;;;;;5032573;28;20449;-66
2021/07/12 08:42:22;;;;;;;18.77;17.97;;;24.10;99.90;;;;;;5032228;28;20460;-66
2021/07/12 08:44:48;;;;;;;19.23;18.23;;;24.20;99.90;;;;;;5032484;28;20453;-66
2021/07/12 08:47:15;;;;;;;19.23;18.43;;;24.30;99.90;;;;;;5032904;28;20453;-67
2021/07/12 08:49:42;;;;;;;18.23;17.43;;;24.40;99.90;;;;;;5032351;28;20452;-66
2021/07/12 08:52:08;;;;;;;18.37;17.67;;;24.50;99.90;;;;;;5032142;28;20449;-67
2021/07/12 08:54:38;;;;;;;18.03;17.20;;;24.60;99.90;;;;;;5032331;28;20810;-67
2021/07/12 08:57:07;;;;;;;17.73;16.93;;;24.70;99.90;;;;;;5032301;28;20477;-66
2021/07/12 08:59:36;;;;;;;19.80;19.00;;;24.60;99.90;;;;;;5032424;28;20452;-66
2021/07/12 09:02:08;;;;;;;18.60;17.80;;;24.70;99.90;;;;;;5032057;28;20441;-66
2021/07/12 09:04:36;;;;;;;17.90;16.80;;;24.90;99.90;;;;;;5032137;28;20481;-67
2021/07/12 09:07:04;;;;;;;17.90;17.10;;;25.00;98.40;;;;;;5031997;28;20475;-67
2021/07/12 09:09:31;;;;;;;17.47;16.77;;;25.00;97.10;;;;;;5032067;28;20550;-66
2021/07/12 09:12:11;;;;;;;16.47;15.90;;;25.10;98.00;;;;;;5031840;28;20449;-66
2021/07/12 09:14:40;;;;;;;18.73;18.03;;;25.20;95.20;;;;;;5031911;28;20915;-67
2021/07/12 09:17:07;;;;;;;18.07;17.37;;;25.20;96.90;;;;;;5032055;28;20504;-66
2021/07/12 09:19:35;;;;;;;18.20;17.50;;;25.30;94.50;;;;;;5031920;28;20445;-66
2021/07/12 09:22:04;;;;;;;18.37;17.67;;;25.20;94.90;;;;;;5030828;28;20453;-65
2021/07/12 09:24:40;;;;;;;17.40;16.80;;;25.30;95.20;;;;;;5031717;28;21034;-66
2021/07/12 09:27:12;;;;;;;18.60;17.90;;;25.50;92.70;;;;;;5031672;28;20480;-66
2021/07/12 09:29:41;;;;;;;17.57;16.90;;;25.50;93.10;;;;;;5031678;28;20453;-66
2021/07/12 09:32:10;;;;;;;17.60;17.00;;;25.70;93.70;;;;;;5031507;28;20441;-67
2021/07/12 09:34:37;;;;;;;17.33;16.73;;;25.80;92.60;;;;;;5031590;28;20449;-67
2021/07/12 09:37:06;;;;;;;18.90;18.00;;;26.00;93.00;;;;;;5031693;28;20469;-67
2021/07/12 09:39:38;;;;;;;18.23;17.50;;;26.20;92.30;;;;;;5031832;28;20441;-66
2021/07/12 09:42:08;;;;;;;17.63;16.97;;;26.30;90.90;;;;;;5031469;28;20460;-66
2021/07/12 09:44:38;;;;;;;17.07;16.37;;;26.30;91.00;;;;;;5031469;28;20473;-66
2021/07/12 09:47:19;;;;;;;17.47;16.77;;;26.20;90.20;;;;;;5031680;28;20473;-66
2021/07/12 09:49:46;;;;;;;18.00;17.20;;;26.10;88.80;;;;;;5031548;28;20449;-65
2021/07/12 09:52:14;;;;;;;17.93;17.33;;;26.60;89.30;;;;;;5031216;28;20453;-66
2021/07/12 09:54:43;;;;;;;18.17;17.57;;;27.00;85.40;;;;;;5031462;28;20449;-67
2021/07/12 09:57:12;;;;;;;17.90;17.30;;;27.50;82.80;;;;;;5031427;28;20553;-66
2021/07/12 09:59:58;;;;;;;18.50;17.80;;;27.90;75.90;;;;;;5031252;28;20441;-66
2021/07/12 10:02:27;;;;;;;20.03;19.13;;;28.40;72.50;;;;;;5031270;28;20444;-67
2021/07/12 10:04:58;;;;;;;18.97;18.37;;;29.10;71.00;;;;;;5031097;28;21017;-66
2021/07/12 10:07:25;;;;;;;19.43;18.37;;;29.40;64.10;;;;;;5031459;28;20445;-66
2021/07/12 10:09:52;;;;;;;19.23;18.63;;;30.00;61.30;;;;;;5031298;28;20449;-67
2021/07/12 10:12:18;;;;;;;18.57;17.97;;;30.50;59.70;;;;;;5030918;28;20475;-67
2021/07/12 10:14:45;;;;;;;19.47;18.83;;;30.70;58.50;;;;;;5031280;28;20452;-68
2021/07/12 10:17:14;;;;;;;20.40;19.60;;;31.20;57.40;;;;;;5031190;28;20571;-67
2021/07/12 10:19:43;;;;;;;19.40;18.70;;;31.40;54.90;;;;;;5031234;28;20456;-68
2021/07/12 10:22:12;;;;;;;20.10;19.30;;;31.70;54.60;;;;;;5031080;28;20448;-67
2021/07/12 10:24:40;;;;;;;19.40;18.70;;;32.10;53.90;;;;;;5031012;28;20484;-66
2021/07/12 10:27:08;;;;;;;19.60;19.00;;;31.70;53.40;;;;;;5030958;28;20994;-66
2021/07/12 10:29:37;;;;;;;20.33;19.63;;;31.30;53.10;;;;;;5031055;28;20451;-67
2021/07/12 10:32:10;;;;;;;20.17;19.47;;;31.60;51.80;;;;;;5030966;28;20456;-67
2021/07/12 10:34:42;;;;;;;20.30;19.60;;;32.00;51.30;;;;;;5033851;28;20444;-66
2021/07/12 10:37:21;;;;;;;20.20;19.30;;;32.00;51.00;;;;;;5035065;28;20869;-66
2021/07/12 10:40:18;;;;;;;22.13;21.23;;;32.50;50.50;;;;;;5034997;28;20440;-66
2021/07/12 10:42:58;;;;;;;20.47;19.37;;;32.50;49.80;;;;;;5034698;28;20476;-67
2021/07/12 10:45:42;;;;;;;19.80;19.10;;;32.30;48.40;;;;;;5034778;28;20468;-67
2021/07/12 10:48:12;;;;;;;20.97;20.17;;;32.30;48.20;;;;;;5034738;28;20444;-66
2021/07/12 10:50:56;;;;;;;19.77;19.17;;;32.60;48.60;;;;;;5034817;28;20448;-66
2021/07/12 10:53:57;;;;;;;20.47;19.87;;;32.50;47.00;;;;;;5034441;28;20441;-67
2021/07/12 10:56:41;;;;;;;20.10;19.50;;;32.80;47.30;;;;;;5034690;28;20503;-66
2021/07/12 10:59:08;;;;;;;19.57;18.97;;;32.90;46.80;;;;;;5034613;28;20476;-66
2021/07/12 11:01:42;;;;;;;20.63;19.93;;;32.70;46.90;;;;;;5034230;28;20440;-66
2021/07/12 11:04:34;;;;;;;19.47;18.67;;;32.70;46.30;;;;;;5034484;28;20480;-66
2021/07/12 11:07:04;;;;;;;19.90;19.13;;;33.20;46.70;;;;;;5034158;28;20467;-66
2021/07/12 11:09:47;;;;;;;19.57;18.80;;;33.60;45.80;;;;;;5034374;28;20865;-66
2021/07/12 11:12:52;;;;;;;20.87;20.17;;;33.40;46.00;;;;;;5033953;28;20474;-67
2021/07/12 11:15:36;;;;;;;20.67;19.87;;;33.60;44.40;;;;;;5034217;28;20456;-66
2021/07/12 11:18:05;;;;;;;21.17;20.37;;;33.90;43.80;;;;;;5034203;28;20546;-67
2021/07/12 11:20:51;;;;;;;20.00;19.30;;;34.30;43.00;;;;;;5034098;28;20444;-66
2021/07/12 11:23:43;;;;;;;19.97;19.17;;;34.40;42.40;;;;;;5033734;28;20453;-66
2021/07/12 11:26:35;;;;;;;19.70;19.00;;;34.50;42.30;;;;;;5033947;28;20499;-66
2021/07/12 11:29:15;;;;;;;20.07;19.37;;;34.40;42.50;;;;;;5034058;28;20471;-66
2021/07/12 11:31:43;;;;;;;19.77;19.07;;;34.40;41.90;;;;;;5033818;28;20451;-66
2021/07/12 11:34:15;;;;;;;20.33;19.30;;;34.00;43.20;;;;;;5033725;28;20918;-66
2021/07/12 11:36:49;;;;;;;20.87;20.17;;;34.20;43.10;;;;;;5033775;28;20482;-66
2021/07/12 11:39:18;;;;;;;20.40;19.60;;;34.40;42.70;;;;;;5033801;28;20440;-66
2021/07/12 11:41:44;;;;;;;20.47;19.77;;;34.40;42.70;;;;;;5033282;28;20440;-66
2021/07/12 11:44:13;;;;;;;19.80;19.20;;;34.70;43.00;;;;;;5033564;28;20229;-66
2021/07/12 11:46:40;;;;;;;21.50;20.67;;;34.70;42.80;;;;;;5032654;28;20531;-67
2021/07/12 11:49:08;;;;;;;20.93;20.23;;;35.00;41.60;;;;;;5033612;28;20205;-66
2021/07/12 11:51:35;;;;;;;20.83;19.83;;;34.90;41.80;;;;;;5033216;28;20202;-65
2021/07/12 11:54:02;;;;;;;19.30;18.70;;;34.90;41.70;;;;;;5033646;28;20445;-67
2021/07/12 11:56:30;;;;;;;19.17;18.53;;;34.90;41.90;;;;;;5033352;28;20221;-66
2021/07/12 11:58:58;;;;;;;19.73;19.03;;;35.10;41.40;;;;;;5033405;28;20445;-66
2021/07/12 12:01:25;;;;;;;19.00;18.30;;;34.90;41.20;;;;;;5033153;28;20456;-66
2021/07/12 12:04:02;;;;;;;21.43;20.50;;;35.00;41.80;;;;;;5033191;28;20895;-66
2021/07/12 12:06:29;;;;;;;20.30;19.60;;;34.90;41.50;;;;;;5033085;28;20905;-66
2021/07/12 12:09:00;;;;;;;21.03;20.00;;;34.60;41.70;;;;;;5033118;28;20448;-66
2021/07/12 12:11:27;;;;;;;20.30;19.53;;;34.20;41.20;;;;;;5033059;28;20973;-66
2021/07/12 12:13:56;;;;;;;20.70;20.00;;;33.80;41.90;;;;;;5033023;28;20455;-66
2021/07/12 12:16:27;;;;;;;21.03;20.23;;;33.70;42.80;;;;;;5033017;28;20787;-66
2021/07/12 12:18:54;;;;;;;20.00;19.40;;;33.60;43.60;;;;;;5032972;28;20484;-66
2021/07/12 12:21:23;;;;;;;20.07;19.30;;;33.30;43.30;;;;;;5032946;28;20471;-66
2021/07/12 12:23:51;;;;;;;20.70;19.90;;;33.40;43.20;;;;;;5032769;28;20534;-66
2021/07/12 12:26:25;;;;;;;20.17;19.47;;;33.50;44.00;;;;;;5048407;22;20497;-67
2021/07/12 12:28:54;;;;;;;20.50;19.70;;;33.60;43.80;;;;;;5013070;28;20796;-67
2021/07/12 12:31:26;;;;;;;20.20;19.53;;;33.80;43.80;;;;;;5013148;28;20515;-67
2021/07/12 12:33:58;;;;;;;19.70;19.10;;;33.70;43.40;;;;;;5012972;28;20449;-67
2021/07/12 12:36:27;;;;;;;20.40;19.70;;;33.50;42.00;;;;;;5012985;28;20464;-67
2021/07/12 12:38:57;;;;;;;20.27;19.57;;;33.40;42.50;;;;;;5012802;28;20476;-67
2021/07/12 12:41:26;;;;;;;19.70;19.00;;;33.20;43.00;;;;;;5012721;28;20793;-67